Keewatin, MN

7:59 PM CDT on August 01, 2014 (GMT -0500)
Chisholm-hibbing (KHIB) Elev 1352 ft | 47.39 °N, 92.84 °W | Change Station

Current weather conditions updated 6 minutes ago

Clear
Clear
75 °F
Feels Like 75 °F
N
4
Wind Variable Wind from North

Tomorrow is forecast to be nearly the same temperature as today. Showers and thunderstorms late tomorrow night.

Today
High -- | Low -- °F
--% Chance of Precip.
Yesterday
High -- | Low -- °F
Precip. -- in
5:50 AM 8:45 PM
Waxing Crescent, 30% visible
Pressure 30.07 in
Visibility 8.0 miles
Clouds Clear
Dew Point 57 °F
Humidity 53%
Rainfall 0.00 in
Snow Depth Not available.
UV 0 out of 12
Pollen 5.90 out of 12
Air Quality Not available.
Flu Activity Not available.
METAR KHIB 020053Z AUTO 01003KT 8SM CLR 24/14 A3007 RMK AO2 SLP181 T02390139

More Conditions Fewer Conditions

Pressure 30.07 in
Visibility 8.0 miles
Clouds Clear
Dew Point 57 °F
Humidity 53%
Rainfall 0.00 in
Snow Depth Not available.
UV 0 out of 12
Pollen 5.90 out of 12
Air Quality Not available.
Flu Activity Not available.
METAR KHIB 020053Z AUTO 01003KT 8SM CLR 24/14 A3007 RMK AO2 SLP181 T02390139

More Conditions Fewer Conditions

10-Day Weather Forecast

Almanac

Astronomy

Aug. 01, 2014 Rise Set
Actual Time 5:50 AM CDT 8:45 PM CDT
Civil Twilight 5:14 AM CDT 9:21 PM CDT
Nautical Twilight 4:28 AM CDT 10:07 PM CDT
Astronomical Twilight 3:32 AM CDT 11:02 PM CDT
Moon 11:41 AM CDT (8/1) 11:03 PM CDT (8/1)
Length of Visible Light 16h 07m
Length of Day
14h 55m
Tomorrow will be 2m 40s shorter.
Waxing Crescent, 30% of the Moon is Illuminated
Today
Waxing Crescent
Aug 3
First Quarter
Aug 10
Full
Aug 17
Last Quarter
Aug 25
New

Today's Extremes

State Highs State Lows

Community

WunderPhotos

Upload Photos

1,739,777 photos uploaded!

Nearby

Snow Depth

Station Depth Elevation
No new snow has been reported.

Earthquake Activity

City Distance Mag. Time & Date
No recent earthquake activity has been reported nearby.
Minimum magnitude displayed is 2.5.

Coastal Water Temperatures

Place Temperature
No Stations Reporting

Nearby Weather Stations

Station Location Temp. Heat Index Dew Point Humidity Wind Precip. Elev Updated Type
Long Lake 59-24, Bigfork, MN 70.9 °F 72 °F 63 °F 77% North  at  0.0 mph 0.00 in / hr 1381 ft 7:59 PM CDT Rapid Fire
Northwest, Grand Rapids, MN 74.1 °F 77 °F 60 °F 62% North  at  0.0 mph 0.00 in / hr 1289 ft 7:59 PM CDT Rapid Fire
Southwest, Grand Rapids, MN 75.9 °F 78 °F 62 °F 62% SW  at  0.0 mph 0.00 in / hr 1322 ft 7:56 PM CDT Normal

Show More Stations Show Fewer Stations